Time;durP1;ratioP1;P1;durP2;ratioP2;P2;SDS_P1;SDS_P2;PMS_P1;PMS_P2;Temp;Humidity;BMP_temperature;BMP_pressure;BME280_temperature;BME280_humidity;BME280_pressure;Samples;Min_cycle;Max_cycle;Signal;HPM_P1;HPM_P2
2022/09/26 06:18:49;;;;;;;12.85;1.77;;;16.20;71.90;;;;;;4991901;24;20089;-75
2022/09/26 06:21:17;;;;;;;4.32;1.23;;;16.20;71.90;;;;;;4790098;30;20062;-75
2022/09/26 06:23:43;;;;;;;7.55;1.65;;;16.20;72.00;;;;;;4790690;30;20051;-76
2022/09/26 06:26:14;;;;;;;5.82;1.35;;;16.20;72.10;;;;;;4789369;30;20055;-79
2022/09/26 06:28:40;;;;;;;5.45;1.15;;;16.20;72.20;;;;;;4790703;30;20063;-79
2022/09/26 06:31:10;;;;;;;8.30;1.48;;;16.20;72.10;;;;;;4790899;30;20132;-79
2022/09/26 06:33:35;;;;;;;6.03;1.42;;;16.20;72.20;;;;;;4774542;30;20055;-75
2022/09/26 06:36:04;;;;;;;2.90;1.20;;;16.20;72.00;;;;;;4789736;30;20110;-75
2022/09/26 06:38:29;;;;;;;6.28;1.40;;;16.30;72.20;;;;;;4774249;30;20429;-75
2022/09/26 06:40:55;;;;;;;2.60;0.95;;;16.30;72.10;;;;;;4790157;30;20085;-75
2022/09/26 06:43:22;;;;;;;4.30;1.17;;;16.30;72.00;;;;;;4774178;30;20379;-75
2022/09/26 06:45:48;;;;;;;6.63;1.40;;;16.40;71.80;;;;;;4790471;30;20124;-77
2022/09/26 06:48:16;;;;;;;3.13;0.90;;;16.40;71.70;;;;;;4789064;30;20047;-76
2022/09/26 06:50:42;;;;;;;2.92;0.93;;;16.40;71.60;;;;;;4790187;30;20065;-76
2022/09/26 06:53:09;;;;;;;5.28;0.90;;;16.50;71.50;;;;;;4773997;30;20051;-76
2022/09/26 06:55:35;;;;;;;5.57;1.15;;;16.50;71.50;;;;;;4789823;30;20092;-77
2022/09/26 06:58:00;;;;;;;8.27;1.35;;;16.50;71.40;;;;;;4789298;30;20051;-76
2022/09/26 07:00:31;;;;;;;4.25;0.77;;;16.50;71.30;;;;;;4790146;30;20043;-75
2022/09/26 07:02:58;;;;;;;3.63;0.90;;;16.50;71.20;;;;;;4790035;30;20090;-75
2022/09/26 07:05:23;;;;;;;3.58;0.73;;;16.50;71.20;;;;;;4802503;29;20112;-77
2022/09/26 07:07:49;;;;;;;3.40;0.80;;;16.50;71.10;;;;;;4807829;29;20089;-76
2022/09/26 07:10:17;;;;;;;3.92;0.88;;;16.50;71.00;;;;;;4807426;29;20047;-75
2022/09/26 07:12:45;;;;;;;3.35;0.75;;;16.50;71.00;;;;;;4792053;29;20058;-76
2022/09/26 07:15:18;;;;;;;4.65;1.33;;;16.60;70.90;;;;;;4807941;29;20051;-75
2022/09/26 07:17:47;;;;;;;12.65;1.52;;;16.60;70.80;;;;;;4776644;30;20061;-75
2022/09/26 07:20:18;;;;;;;4.07;0.93;;;16.60;70.80;;;;;;4773350;30;20130;-75
2022/09/26 07:22:45;;;;;;;1.92;0.57;;;16.60;70.80;;;;;;4789586;30;20057;-77
2022/09/26 07:25:12;;;;;;;4.93;1.00;;;16.60;70.70;;;;;;4789692;30;20142;-76
2022/09/26 07:27:39;;;;;;;5.13;0.80;;;16.60;70.70;;;;;;4790074;30;20425;-76
2022/09/26 07:30:06;;;;;;;4.00;1.10;;;16.60;70.70;;;;;;4789287;30;20055;-77
2022/09/26 07:32:32;;;;;;;3.50;0.80;;;16.60;70.60;;;;;;4789912;30;20372;-76
2022/09/26 07:34:58;;;;;;;5.90;1.15;;;16.60;70.50;;;;;;4789984;30;20116;-77
2022/09/26 07:37:25;;;;;;;3.70;0.80;;;16.60;70.50;;;;;;4789974;30;20051;-77
2022/09/26 07:39:50;;;;;;;1.92;0.80;;;16.60;70.40;;;;;;4770480;30;20051;-74
2022/09/26 07:42:17;;;;;;;3.97;1.10;;;16.60;70.30;;;;;;4770532;30;20051;-77
2022/09/26 07:44:44;;;;;;;8.25;1.40;;;16.60;70.00;;;;;;4789125;30;20133;-75
2022/09/26 07:50:13;;;;;;;2.22;1.00;;;16.60;69.50;;;;;;4782358;29;20067;-74
2022/09/26 07:52:43;;;;;;;4.47;0.90;;;16.60;69.40;;;;;;4806644;29;20051;-76
2022/09/26 07:55:12;;;;;;;3.85;1.73;;;16.50;69.30;;;;;;4793353;30;20051;-74
2022/09/26 07:57:38;;;;;;;2.72;1.13;;;16.50;69.30;;;;;;4793354;30;20051;-72
2022/09/26 08:00:11;;;;;;;3.75;1.25;;;16.50;69.30;;;;;;4793084;30;20471;-75
2022/09/26 08:02:41;;;;;;;5.18;1.35;;;16.50;69.20;;;;;;4791739;30;20051;-76
2022/09/26 08:05:09;;;;;;;7.07;1.23;;;16.40;69.30;;;;;;4788775;30;20047;-76
2022/09/26 08:07:35;;;;;;;3.03;1.20;;;16.40;69.40;;;;;;4793226;29;20055;-76
2022/09/26 08:10:02;;;;;;;4.03;1.35;;;16.50;69.50;;;;;;4792258;30;20352;-80
2022/09/26 08:12:37;;;;;;;4.93;1.20;;;16.50;69.70;;;;;;4792622;30;20417;-73
2022/09/26 08:15:05;;;;;;;4.38;1.10;;;16.50;69.60;;;;;;4793394;30;20078;-76
2022/09/26 08:17:31;;;;;;;2.75;0.85;;;16.50;69.60;;;;;;4776855;30;20087;-75
2022/09/26 08:19:58;;;;;;;6.15;1.38;;;16.50;69.60;;;;;;4792409;30;20479;-76
2022/09/26 08:22:24;;;;;;;3.70;0.98;;;16.50;69.60;;;;;;4792869;30;20051;-75
2022/09/26 08:24:50;;;;;;;6.63;1.65;;;16.50;69.50;;;;;;4792015;30;20054;-74
2022/09/26 08:27:20;;;;;;;3.67;1.27;;;16.50;69.40;;;;;;4792467;30;20134;-73
2022/09/26 08:29:48;;;;;;;5.18;1.58;;;16.50;69.20;;;;;;4777019;30;20372;-75
2022/09/26 08:32:15;;;;;;;6.85;1.30;;;16.50;69.30;;;;;;4778250;30;20059;-73
2022/09/26 08:34:41;;;;;;;5.80;1.60;;;16.50;69.40;;;;;;4774355;30;20058;-73
2022/09/26 08:37:07;;;;;;;6.65;0.93;;;16.50;69.50;;;;;;4758129;30;20077;-75
2022/09/26 08:39:33;;;;;;;3.88;1.02;;;16.50;69.70;;;;;;4774114;30;20064;-74
2022/09/26 08:42:03;;;;;;;4.18;0.80;;;16.50;69.80;;;;;;4774036;30;20055;-77
2022/09/26 08:44:38;;;;;;;4.65;1.48;;;16.50;69.80;;;;;;4772987;30;20063;-75
2022/09/26 08:47:31;;;;;;;3.05;1.08;;;16.60;69.90;;;;;;4791965;30;20059;-75
2022/09/26 08:50:16;;;;;;;2.75;1.02;;;16.60;70.00;;;;;;4791558;30;20055;-81
2022/09/26 08:52:50;;;;;;;4.18;0.70;;;16.60;70.00;;;;;;4792045;30;20092;-77
2022/09/26 08:55:21;;;;;;;4.47;1.13;;;16.60;70.10;;;;;;4791926;30;20063;-75
2022/09/26 08:57:57;;;;;;;6.32;0.80;;;16.60;70.10;;;;;;4791779;30;20062;-71
2022/09/26 09:00:25;;;;;;;4.25;1.35;;;16.70;70.20;;;;;;4775850;30;20055;-75
2022/09/26 09:03:09;;;;;;;7.28;1.00;;;16.60;70.20;;;;;;4791241;30;20071;-74
2022/09/26 09:05:44;;;;;;;5.93;1.25;;;16.70;70.20;;;;;;4772754;30;20435;-75
2022/09/26 09:08:20;;;;;;;5.93;1.15;;;16.70;70.20;;;;;;4774643;30;20430;-75
2022/09/26 09:11:01;;;;;;;7.15;1.33;;;16.70;70.20;;;;;;4791137;30;20078;-74
2022/09/26 09:13:57;;;;;;;4.25;1.02;;;16.70;70.40;;;;;;4791591;30;20134;-74
2022/09/26 09:16:35;;;;;;;9.10;1.48;;;16.70;70.50;;;;;;4791360;30;20055;-73
2022/09/26 09:20:01;;;;;;;7.95;2.35;;;16.70;70.60;;;;;;4791321;30;20098;-74
2022/09/26 09:22:35;;;;;;;9.57;1.55;;;16.60;70.60;;;;;;4736334;30;20056;-73
2022/09/26 09:25:03;;;;;;;;;;;16.60;70.70;;;;;;4790873;30;20162;-74
2022/09/26 09:27:44;;;;;;;4.65;0.98;;;16.60;70.60;;;;;;4790843;30;19926;-73
2022/09/26 09:30:24;;;;;;;6.95;1.48;;;16.60;70.70;;;;;;4790826;30;20047;-75
2022/09/26 09:32:56;;;;;;;8.70;1.15;;;16.70;70.70;;;;;;4773384;30;20126;-74
2022/09/26 09:35:51;;;;;;;7.50;1.30;;;16.70;70.80;;;;;;4791321;30;20061;-73
2022/09/26 09:38:21;;;;;;;3.70;1.40;;;16.70;70.80;;;;;;4791102;30;20501;-73
2022/09/26 09:41:01;;;;;;;4.30;1.00;;;16.70;71.00;;;;;;4806358;29;20054;-72
2022/09/26 09:43:42;;;;;;;4.05;1.08;;;16.60;71.00;;;;;;4790546;30;20055;-73
2022/09/26 09:46:17;;;;;;;6.15;0.93;;;16.60;71.10;;;;;;4790565;30;20058;-73
2022/09/26 09:48:46;;;;;;;3.60;0.70;;;16.70;71.30;;;;;;4790293;30;20463;-74
2022/09/26 09:51:27;;;;;;;5.97;1.45;;;16.60;71.10;;;;;;4790606;30;20137;-73
2022/09/26 09:54:14;;;;;;;2.97;0.75;;;16.60;71.00;;;;;;4791228;30;20074;-73
2022/09/26 09:57:17;;;;;;;5.90;1.30;;;16.70;71.00;;;;;;4790179;30;20076;-74
2022/09/26 10:00:22;;;;;;;6.43;1.00;;;16.70;70.90;;;;;;4784086;30;20055;-74
2022/09/26 10:03:10;;;;;;;4.05;1.60;;;16.70;71.00;;;;;;4769417;30;20550;-73
2022/09/26 10:05:42;;;;;;;5.97;1.17;;;16.70;71.20;;;;;;4790460;30;20066;-74
2022/09/26 10:08:18;;;;;;;3.47;1.15;;;16.70;71.40;;;;;;4790710;30;20069;-78
2022/09/26 10:11:07;;;;;;;5.65;1.05;;;16.70;71.40;;;;;;4782444;29;20085;-77
2022/09/26 10:13:34;;;;;;;5.55;1.05;;;16.70;71.50;;;;;;4760631;30;20051;-77
2022/09/26 10:16:03;;;;;;;9.38;1.15;;;16.70;71.50;;;;;;4774908;30;20062;-79
2022/09/26 10:18:30;;;;;;;6.70;1.30;;;16.70;71.50;;;;;;4790056;30;20379;-77
2022/09/26 10:21:05;;;;;;;4.30;1.10;;;16.70;71.60;;;;;;4790614;30;20140;-77
2022/09/26 10:23:41;;;;;;;7.78;1.13;;;16.70;71.60;;;;;;4790268;30;20062;-79
2022/09/26 10:26:09;;;;;;;6.97;1.20;;;16.70;71.60;;;;;;4775445;30;20138;-77
2022/09/26 10:28:48;;;;;;;6.40;0.93;;;16.70;71.70;;;;;;4774395;30;20059;-78
2022/09/26 10:31:28;;;;;;;5.15;1.15;;;16.70;71.70;;;;;;4790316;30;20055;-79
2022/09/26 10:34:00;;;;;;;4.13;0.95;;;16.70;72.20;;;;;;4790004;30;20130;-77
2022/09/26 10:36:35;;;;;;;7.35;1.00;;;16.70;71.60;;;;;;4789912;30;20051;-77
2022/09/26 10:42:20;;;;;;;7.82;1.13;;;16.80;71.60;;;;;;4788177;30;20059;-79
2022/09/26 10:44:49;;;;;;;7.35;1.45;;;16.80;71.60;;;;;;4773145;30;20063;-82
2022/09/26 10:47:25;;;;;;;5.47;1.40;;;16.80;71.50;;;;;;4789900;30;20055;-78
2022/09/26 10:49:57;;;;;;;5.22;1.00;;;16.80;71.60;;;;;;4773317;30;20059;-77
2022/09/26 10:52:35;;;;;;;8.43;1.90;;;16.70;71.70;;;;;;4790342;30;20059;-76
2022/09/26 10:55:24;;;;;;;6.28;1.45;;;16.70;71.80;;;;;;4773641;30;20356;-77
2022/09/26 10:57:56;;;;;;;10.13;1.55;;;16.70;71.80;;;;;;4789568;30;20055;-76
2022/09/26 11:00:39;;;;;;;2.70;0.90;;;16.70;71.80;;;;;;4774498;29;20104;-79
2022/09/26 11:03:16;;;;;;;2.30;0.95;;;16.70;71.80;;;;;;4788692;30;20070;-78
2022/09/26 11:05:56;;;;;;;3.00;1.13;;;16.80;71.90;;;;;;4788497;30;20089;-77
2022/09/26 11:08:33;;;;;;;6.03;1.30;;;16.80;72.00;;;;;;4789028;30;20059;-77
2022/09/26 11:11:02;;;;;;;3.03;1.23;;;16.70;72.00;;;;;;4789636;30;20086;-78
2022/09/26 11:13:37;;;;;;;3.63;0.82;;;16.80;72.20;;;;;;4789776;30;20394;-78
2022/09/26 11:16:08;;;;;;;2.30;1.02;;;16.70;72.10;;;;;;4789532;30;20135;-78
2022/09/26 11:19:07;;;;;;;1.85;0.90;;;16.80;72.20;;;;;;4788992;30;20055;-78
2022/09/26 11:21:50;;;;;;;2.67;1.40;;;16.80;72.20;;;;;;4774938;30;20062;-78
2022/09/26 11:24:29;;;;;;;2.28;0.90;;;16.80;72.50;;;;;;4777447;30;20495;-77
2022/09/26 11:27:10;;;;;;;4.50;1.15;;;16.80;72.50;;;;;;4777195;30;20059;-77
2022/09/26 11:29:45;;;;;;;1.95;1.13;;;16.70;72.50;;;;;;4777052;30;20199;-77
2022/09/26 11:32:29;;;;;;;2.22;1.30;;;16.70;72.70;;;;;;4793300;30;20376;-78
2022/09/26 11:35:01;;;;;;;3.80;1.27;;;16.70;72.80;;;;;;4792945;30;20047;-81
2022/09/26 11:37:30;;;;;;;3.63;0.90;;;16.70;72.90;;;;;;4777390;30;20051;-79
2022/09/26 11:40:38;;;;;;;4.03;1.10;;;16.70;73.00;;;;;;4793286;30;20059;-75
2022/09/26 11:43:29;;;;;;;2.80;1.00;;;16.70;73.20;;;;;;4777536;30;20471;-80
2022/09/26 11:46:13;;;;;;;3.47;1.00;;;16.70;73.40;;;;;;4791913;30;20087;-81
2022/09/26 11:48:39;;;;;;;1.80;0.98;;;16.70;73.50;;;;;;4793282;30;20055;-76
2022/09/26 11:51:05;;;;;;;3.88;1.05;;;16.70;73.40;;;;;;4776777;30;20051;-78
2022/09/26 11:53:39;;;;;;;5.05;0.90;;;16.70;73.50;;;;;;4793170;30;20074;-77
2022/09/26 11:56:14;;;;;;;4.03;0.93;;;16.80;73.60;;;;;;4792991;30;20051;-78
2022/09/26 11:58:58;;;;;;;3.92;0.90;;;16.70;73.50;;;;;;4776993;30;20474;-77
2022/09/26 12:01:45;;;;;;;1.15;0.60;;;16.70;73.50;;;;;;4792701;30;20055;-76
2022/09/26 12:04:25;;;;;;;2.38;1.10;;;16.80;73.50;;;;;;4792739;30;20043;-79
2022/09/26 12:07:21;;;;;;;4.50;0.65;;;16.80;73.50;;;;;;4792358;30;20055;-77
2022/09/26 12:10:08;;;;;;;1.63;0.50;;;16.80;73.50;;;;;;4792422;30;20193;-77
2022/09/26 12:12:46;;;;;;;3.10;0.85;;;16.80;73.50;;;;;;4777226;30;20055;-77
2022/09/26 12:15:29;;;;;;;2.88;0.73;;;16.80;73.50;;;;;;4777080;30;20070;-76
2022/09/26 12:18:27;;;;;;;1.70;0.70;;;16.80;73.40;;;;;;4792705;30;20059;-76
2022/09/26 12:21:14;;;;;;;3.30;0.57;;;16.80;73.40;;;;;;4776687;30;20130;-75
2022/09/26 12:23:49;;;;;;;1.70;0.80;;;16.80;73.40;;;;;;4792685;30;20359;-76
2022/09/26 12:26:22;;;;;;;2.30;0.65;;;16.80;73.30;;;;;;4792327;30;20047;-76
2022/09/26 12:29:14;;;;;;;2.33;0.60;;;16.80;73.30;;;;;;4792430;30;20467;-77
2022/09/26 12:31:58;;;;;;;7.47;1.13;;;16.80;73.20;;;;;;4791605;30;20097;-78
2022/09/26 12:34:36;;;;;;;11.05;1.42;;;16.80;73.40;;;;;;4791693;29;20082;-78
2022/09/26 12:37:14;;;;;;;9.15;1.15;;;16.80;73.70;;;;;;4791567;30;20117;-78
2022/09/26 12:39:46;;;;;;;9.30;1.50;;;16.80;73.90;;;;;;4790380;30;20052;-77
2022/09/26 12:42:49;;;;;;;4.95;0.82;;;16.80;73.90;;;;;;4792093;30;20491;-80
2022/09/26 12:45:30;;;;;;;14.13;1.35;;;16.80;73.90;;;;;;4791737;30;20486;-75
2022/09/26 12:48:17;;;;;;;7.32;1.38;;;16.80;73.90;;;;;;4792365;30;20051;-76
2022/09/26 12:50:54;;;;;;;8.32;1.27;;;16.90;73.80;;;;;;4792046;30;20044;-77
2022/09/26 12:53:58;;;;;;;8.43;0.82;;;16.90;74.00;;;;;;4792207;30;20356;-76
2022/09/26 12:56:46;;;;;;;6.90;1.38;;;16.90;74.00;;;;;;4791699;30;20179;-79
2022/09/26 12:59:51;;;;;;;5.78;1.35;;;16.90;74.10;;;;;;4790980;30;20451;-76
2022/09/26 13:02:55;;;;;;;5.15;1.02;;;16.90;74.00;;;;;;4758746;30;20073;-79
2022/09/26 13:05:45;;;;;;;3.63;0.65;;;16.90;74.10;;;;;;4774516;30;20064;-77
2022/09/26 13:08:35;;;;;;;8.88;0.80;;;16.90;74.00;;;;;;4774192;30;20074;-79
2022/09/26 13:29:27;;;;;;;11.30;1.33;;;17.00;74.10;;;;;;4803229;29;20080;-72
2022/09/26 13:32:16;;;;;;;5.53;1.20;;;17.10;74.20;;;;;;4809292;29;20069;-72
2022/09/26 13:34:50;;;;;;;6.35;1.60;;;17.10;74.20;;;;;;4809743;29;20505;-74
2022/09/26 13:37:37;;;;;;;17.33;2.17;;;17.00;74.30;;;;;;4810011;29;20185;-76
2022/09/26 13:40:32;;;;;;;6.90;1.35;;;17.10;74.20;;;;;;4793970;29;20055;-76
2022/09/26 13:43:04;;;;;;;10.57;1.10;;;17.10;74.30;;;;;;4785694;29;20066;-76
2022/09/26 16:36:33;;;;;;;25.67;2.78;;;17.20;74.50;;;;;;4769109;29;20056;-77
2022/09/26 16:39:07;;;;;;;18.70;2.83;;;17.20;74.40;;;;;;4774929;30;20383;-75
2022/09/26 16:41:36;;;;;;;17.27;3.20;;;17.20;74.10;;;;;;4774176;30;20126;-76
2022/09/26 16:44:17;;;;;;;16.13;2.20;;;17.20;74.10;;;;;;4774435;30;20143;-71
2022/09/26 16:46:50;;;;;;;20.35;3.35;;;17.20;74.40;;;;;;4774384;30;20126;-82
2022/09/26 16:49:41;;;;;;;13.43;3.03;;;17.20;74.40;;;;;;4773983;30;20048;-74
2022/09/26 16:52:29;;;;;;;13.00;1.70;;;17.20;73.90;;;;;;4774297;30;20066;-75
2022/09/26 16:54:58;;;;;;;17.33;2.50;;;17.20;73.50;;;;;;4774393;30;20051;-81
2022/09/26 16:57:29;;;;;;;17.25;2.85;;;17.20;73.90;;;;;;4758306;30;20058;-82
2022/09/26 17:02:44;;;;;;;22.35;3.42;;;17.20;74.00;;;;;;4774241;30;20052;-84
2022/09/26 17:05:20;;;;;;;24.50;2.70;;;17.30;74.20;;;;;;4758745;30;20528;-84
2022/09/26 17:07:50;;;;;;;21.38;2.92;;;17.30;74.10;;;;;;4743331;30;20464;-80
2022/09/26 17:10:18;;;;;;;20.80;2.95;;;17.30;74.20;;;;;;4773696;30;20059;-86
2022/09/26 17:12:49;;;;;;;32.13;4.20;;;17.30;74.20;;;;;;4758085;30;20036;-84
2022/09/26 17:15:33;;;;;;;16.48;2.60;;;17.30;74.30;;;;;;4757847;30;20036;-83
2022/09/26 17:18:03;;;;;;;19.45;3.92;;;17.30;74.20;;;;;;4758190;30;20109;-83
2022/09/26 17:20:29;;;;;;;13.35;2.45;;;17.40;74.30;;;;;;4758781;30;20052;-72
2022/09/26 17:22:55;;;;;;;12.57;1.58;;;17.30;73.40;;;;;;4773852;30;20448;-71
2022/09/26 17:25:23;;;;;;;9.10;1.80;;;17.30;71.20;;;;;;4757436;30;20345;-71
2022/09/26 17:27:54;;;;;;;4.90;0.98;;;17.10;70.40;;;;;;4773657;30;20047;-71
2022/09/26 17:30:20;;;;;;;4.80;1.08;;;16.90;70.20;;;;;;4772227;30;20464;-72
2022/09/26 17:32:49;;;;;;;6.70;1.08;;;16.80;70.60;;;;;;4773007;30;20113;-72
2022/09/26 18:27:13;;;;;;;2.55;0.82;;;16.90;72.40;;;;;;5582535;24;20896;-72
2022/09/26 18:29:43;;;;;;;4.32;0.50;;;16.90;72.40;;;;;;4818317;29;20066;-71
2022/09/26 18:32:22;;;;;;;3.78;0.60;;;16.90;72.60;;;;;;4818326;29;20050;-71
2022/09/26 18:34:48;;;;;;;5.60;0.63;;;16.90;72.60;;;;;;4824981;29;20489;-73
2022/09/26 18:37:13;;;;;;;3.30;0.52;;;16.90;72.60;;;;;;4823116;29;20081;-72
2022/09/26 18:39:39;;;;;;;5.40;0.68;;;17.00;72.70;;;;;;4811812;29;20089;-74
2022/09/26 18:42:08;;;;;;;3.65;0.70;;;17.00;72.80;;;;;;4808562;29;20054;-73
2022/09/26 18:44:35;;;;;;;2.35;0.57;;;17.00;72.80;;;;;;4827296;29;20086;-74
2022/09/26 18:47:04;;;;;;;3.50;0.70;;;17.00;72.70;;;;;;4816717;29;20088;-74
2022/09/26 18:49:33;;;;;;;8.10;0.73;;;17.10;72.80;;;;;;4808519;29;20063;-74
2022/09/26 18:52:00;;;;;;;3.47;0.45;;;17.00;72.70;;;;;;4807796;29;20051;-74
2022/09/26 18:54:26;;;;;;;3.42;0.80;;;17.10;72.70;;;;;;4808054;29;20055;-74
2022/09/26 18:59:36;;;;;;;4.63;0.88;;;17.10;72.70;;;;;;4826576;29;20046;-74
2022/09/26 19:02:04;;;;;;;3.47;0.57;;;17.00;72.60;;;;;;4827116;29;20065;-74
2022/09/26 19:04:30;;;;;;;2.65;0.68;;;17.00;72.60;;;;;;4826363;29;20129;-74
2022/09/26 19:07:05;;;;;;;2.40;0.65;;;17.10;72.70;;;;;;4816728;29;20062;-74
2022/09/26 19:09:33;;;;;;;3.25;0.50;;;17.00;72.60;;;;;;4807867;29;20522;-74
2022/09/26 19:11:59;;;;;;;3.53;0.30;;;17.10;72.70;;;;;;4796507;29;20351;-76
2022/09/26 19:14:28;;;;;;;3.92;0.70;;;17.10;72.70;;;;;;4826202;29;20167;-73
2022/09/26 19:16:55;;;;;;;2.67;0.75;;;17.10;72.80;;;;;;4824453;29;20434;-81
2022/09/26 19:19:21;;;;;;;4.38;0.50;;;17.00;72.80;;;;;;4816202;29;20065;-74
2022/09/26 19:21:59;;;;;;;3.15;0.55;;;17.10;72.90;;;;;;4826566;29;20138;-73
2022/09/26 19:24:44;;;;;;;3.33;0.45;;;17.10;73.10;;;;;;4826252;29;20446;-74
2022/09/26 19:27:43;;;;;;;6.00;0.52;;;17.10;73.10;;;;;;4826265;29;20043;-73
2022/09/26 19:30:20;;;;;;;2.85;0.38;;;17.10;73.30;;;;;;4825917;29;20063;-72
2022/09/26 19:32:48;;;;;;;3.90;0.88;;;17.00;73.20;;;;;;4817451;29;20130;-74
2022/09/26 19:35:44;;;;;;;7.75;1.00;;;17.10;73.10;;;;;;4808076;29;20050;-76
2022/09/26 19:38:22;;;;;;;9.00;1.25;;;17.10;71.70;;;;;;4806692;29;20046;-75
2022/09/26 19:40:50;;;;;;;7.43;1.17;;;17.00;70.40;;;;;;4825624;29;20111;-76
2022/09/26 19:43:16;;;;;;;7.35;1.17;;;16.90;70.10;;;;;;4826428;29;20054;-76
2022/09/26 19:45:43;;;;;;;6.80;1.63;;;16.70;70.10;;;;;;4813993;29;20056;-72
2022/09/26 19:48:15;;;;;;;7.18;1.38;;;16.60;70.30;;;;;;4829697;29;20058;-76
2022/09/26 19:50:42;;;;;;;6.13;1.02;;;16.50;70.50;;;;;;4829156;29;20051;-74
2022/09/26 19:53:17;;;;;;;5.70;1.30;;;16.40;70.80;;;;;;4829369;29;20050;-74
2022/09/26 19:55:48;;;;;;;9.48;1.40;;;16.30;71.10;;;;;;4824999;29;20054;-73
2022/09/26 19:58:19;;;;;;;7.85;1.70;;;16.20;71.40;;;;;;4817467;29;20522;-73
2022/09/26 20:00:52;;;;;;;8.52;1.52;;;16.10;71.50;;;;;;4826488;29;20050;-73
2022/09/26 20:03:39;;;;;;;5.00;1.42;;;16.10;71.50;;;;;;4828709;29;20073;-73
2022/09/26 20:06:23;;;;;;;7.88;1.05;;;16.10;71.50;;;;;;4800713;29;20058;-73
2022/09/26 20:08:51;;;;;;;9.23;1.40;;;16.00;71.10;;;;;;4794991;29;20050;-79
2022/09/26 20:11:18;;;;;;;10.38;1.58;;;16.00;71.30;;;;;;4821703;29;20130;-79
2022/09/26 20:16:33;;;;;;;10.38;1.80;;;15.90;71.20;;;;;;4821144;29;20470;-78
2022/09/26 20:19:03;;;;;;;9.85;1.25;;;15.90;71.00;;;;;;4829333;29;20369;-78
2022/09/26 20:21:29;;;;;;;7.80;1.38;;;15.90;70.80;;;;;;4828885;29;20430;-78
2022/09/26 20:23:57;;;;;;;5.45;1.48;;;15.80;70.70;;;;;;4813715;29;20141;-79
2022/09/26 20:26:23;;;;;;;7.07;1.27;;;15.80;70.80;;;;;;4829237;29;20410;-77
2022/09/26 20:28:50;;;;;;;9.90;1.70;;;15.80;70.90;;;;;;4827342;29;20054;-76
2022/09/26 20:31:21;;;;;;;7.10;1.02;;;15.70;71.10;;;;;;4828542;29;20050;-77
2022/09/26 20:33:50;;;;;;;6.35;1.10;;;15.80;71.40;;;;;;4813533;29;20054;-77
2022/09/26 20:36:29;;;;;;;9.88;1.13;;;15.70;71.30;;;;;;4797904;29;20130;-78
2022/09/26 20:38:59;;;;;;;4.80;1.02;;;15.70;71.20;;;;;;4828527;29;20088;-74
2022/09/26 20:41:34;;;;;;;4.55;1.00;;;15.70;71.10;;;;;;4811213;29;20050;-75
2022/09/26 20:44:06;;;;;;;8.40;1.98;;;15.70;71.00;;;;;;4828632;29;20050;-74
2022/09/26 20:46:38;;;;;;;7.35;1.02;;;15.70;71.10;;;;;;4828270;29;20082;-74
2022/09/26 20:49:06;;;;;;;6.95;1.00;;;15.70;71.20;;;;;;4828114;29;20062;-73
2022/09/26 20:51:33;;;;;;;13.55;1.50;;;15.70;71.10;;;;;;4812628;29;20062;-73
2022/09/26 20:54:03;;;;;;;6.22;0.80;;;15.70;70.80;;;;;;4827812;29;20057;-74
2022/09/26 20:56:28;;;;;;;7.40;1.15;;;15.70;70.80;;;;;;4828408;29;20061;-73
2022/09/26 20:58:54;;;;;;;5.75;0.98;;;15.70;70.80;;;;;;4828177;29;20042;-74
2022/09/26 21:01:21;;;;;;;6.55;0.93;;;15.70;70.60;;;;;;4812211;29;20042;-75
2022/09/26 21:03:53;;;;;;;4.05;0.68;;;15.70;70.40;;;;;;4828079;29;20058;-77
